createdAt,value
2023-11-21T00:01:18.553Z,97772.38
2023-11-21T00:03:44.871Z,97772.38
2023-11-21T00:06:11.043Z,97778.44
2023-11-21T00:08:37.178Z,97783.72
2023-11-21T00:11:03.339Z,97781.09
2023-11-21T00:13:29.527Z,97778.44
2023-11-21T00:15:55.716Z,97778.44
2023-11-21T00:18:21.893Z,97781.94
2023-11-21T00:20:48.036Z,97783.72
2023-11-21T00:23:14.212Z,97789.00
2023-11-21T00:25:40.414Z,97795.13
2023-11-21T00:28:06.578Z,97794.28
2023-11-21T00:30:32.738Z,97796.91
2023-11-21T00:32:58.969Z,97797.75
2023-11-21T00:35:25.289Z,97805.69
2023-11-21T00:37:51.514Z,97807.47
2023-11-21T00:40:17.738Z,97800.41
2023-11-21T00:42:43.908Z,97800.41
2023-11-21T00:45:10.039Z,97802.19
2023-11-21T00:47:36.275Z,97802.19
2023-11-21T00:50:02.470Z,97802.19
2023-11-21T00:52:28.695Z,97799.56
2023-11-21T00:54:54.970Z,97794.28
2023-11-21T00:57:21.146Z,97803.22
2023-11-21T00:59:47.311Z,97802.19
2023-11-21T01:02:13.494Z,97804.84
2023-11-21T01:04:39.774Z,97808.31
2023-11-21T01:07:06.007Z,97810.09
2023-11-21T01:09:32.179Z,97815.38
2023-11-21T01:11:58.396Z,97818.03
2023-11-21T01:14:24.559Z,97816.22
2023-11-21T01:16:50.789Z,97815.38
2023-11-21T01:19:17.060Z,97814.56
2023-11-21T01:21:43.304Z,97819.84
2023-11-21T01:24:09.470Z,97823.31
2023-11-21T01:26:35.688Z,97825.13
2023-11-21T01:29:01.871Z,97827.78
2023-11-21T01:31:28.113Z,97825.13
2023-11-21T01:33:54.357Z,97825.13
2023-11-21T01:36:20.497Z,97830.41
2023-11-21T01:38:46.677Z,97823.31
2023-11-21T01:41:12.861Z,97824.31
2023-11-21T01:43:39.055Z,97824.31
2023-11-21T01:46:05.282Z,97830.41
2023-11-21T01:48:31.535Z,97829.59
2023-11-21T01:50:57.735Z,97826.78
2023-11-21T01:53:24.065Z,97832.06
2023-11-21T01:55:50.354Z,97825.94
2023-11-21T01:58:16.548Z,97834.88
2023-11-21T02:00:42.760Z,97834.69
2023-11-21T02:03:09.044Z,97836.50
2023-11-21T02:05:35.247Z,97830.41
2023-11-21T02:08:01.412Z,97837.50
2023-11-21T02:10:27.628Z,97841.78
2023-11-21T02:12:53.893Z,97835.69
2023-11-21T02:15:20.131Z,97845.44
2023-11-21T02:17:46.325Z,97844.41
2023-11-21T02:20:12.520Z,97851.50
2023-11-21T02:22:38.726Z,97853.97
2023-11-21T02:25:04.901Z,97858.44
2023-11-21T02:27:31.046Z,97862.88
2023-11-21T02:29:57.199Z,97860.22
2023-11-21T02:32:23.343Z,97872.44
2023-11-21T02:34:49.579Z,97865.50
2023-11-21T02:37:15.832Z,97876.06
2023-11-21T02:40:18.563Z,97873.44
2023-11-21T02:42:35.241Z,97880.34
2023-11-21T02:45:01.442Z,97878.69
2023-11-21T02:47:27.716Z,97883.97
2023-11-21T02:49:54.526Z,97878.69
2023-11-21T02:52:20.779Z,97886.63
2023-11-21T02:54:46.974Z,97877.91
2023-11-21T02:57:13.138Z,97869.16
2023-11-21T02:59:39.268Z,97873.44
2023-11-21T03:02:05.479Z,97873.44
2023-11-21T03:04:31.706Z,97876.06
2023-11-21T03:06:57.849Z,97877.91
2023-11-21T03:09:23.995Z,97872.63
2023-11-21T03:11:50.168Z,97877.91
2023-11-21T03:14:16.309Z,97880.53
2023-11-21T03:16:42.784Z,97883.97
2023-11-21T03:19:08.997Z,97886.63
2023-11-21T03:21:35.128Z,97885.00
2023-11-21T03:24:01.478Z,97892.72
2023-11-21T03:26:28.139Z,97893.72
2023-11-21T03:28:54.285Z,97888.44
2023-11-21T03:31:20.500Z,97899.00
2023-11-21T03:33:46.728Z,97901.63
2023-11-21T03:36:12.866Z,97905.09
2023-11-21T03:38:39.018Z,97910.38
2023-11-21T03:41:05.176Z,97912.19
2023-11-21T03:43:31.312Z,97914.66
2023-11-21T03:45:58.452Z,97906.91
2023-11-21T03:48:25.132Z,97908.75
2023-11-21T03:50:51.293Z,97909.56
2023-11-21T03:53:17.442Z,97915.63
2023-11-21T03:55:43.642Z,97926.19
2023-11-21T03:58:09.822Z,97928.03
2023-11-21T04:00:35.961Z,97920.91
2023-11-21T04:03:02.250Z,97927.03
2023-11-21T04:05:28.445Z,97933.31
2023-11-21T04:07:54.666Z,97935.94
2023-11-21T04:10:20.873Z,97940.22
2023-11-21T04:12:47.034Z,97949.94
2023-11-21T04:15:13.176Z,97948.13
2023-11-21T04:17:39.373Z,97947.28
2023-11-21T04:20:05.562Z,97954.41
2023-11-21T04:22:31.729Z,97953.41
2023-11-21T04:24:57.905Z,97957.84
2023-11-21T04:27:24.074Z,97968.41
2023-11-21T04:29:50.249Z,97967.59
2023-11-21T04:32:16.420Z,97977.34
2023-11-21T04:34:42.642Z,97962.31
2023-11-21T04:37:08.866Z,97957.84
2023-11-21T04:39:35.052Z,97962.31
2023-11-21T04:42:01.194Z,97955.44
2023-11-21T04:44:27.362Z,97964.97
2023-11-21T04:46:53.600Z,97977.34
2023-11-21T04:49:19.861Z,97974.69
2023-11-21T04:51:46.030Z,97978.16
2023-11-21T04:54:12.475Z,97979.97
2023-11-21T04:56:38.660Z,97978.97
2023-11-21T04:59:04.825Z,97978.16
2023-11-21T05:01:31.063Z,97979.97
2023-11-21T05:03:57.349Z,97978.16
2023-11-21T05:06:23.555Z,97977.34
2023-11-21T05:08:49.727Z,97984.22
2023-11-21T05:11:15.864Z,97981.59
2023-11-21T05:13:42.054Z,97979.97
2023-11-21T05:16:08.253Z,97986.06
2023-11-21T05:18:35.847Z,97985.25
2023-11-21T05:21:02.064Z,97988.69
2023-11-21T05:23:28.228Z,97990.53
2023-11-21T05:25:58.109Z,97987.09
2023-11-21T05:28:28.636Z,97999.25
2023-11-21T05:31:07.529Z,97996.78
2023-11-21T05:33:40.524Z,97990.53
2023-11-21T05:36:07.954Z,97993.16
2023-11-21T05:38:34.098Z,97993.97
2023-11-21T05:41:02.439Z,98001.91
2023-11-21T05:43:28.775Z,98004.53
2023-11-21T05:45:54.953Z,98009.00
2023-11-21T05:48:29.511Z,98017.72
2023-11-21T05:50:56.183Z,98023.81
2023-11-21T05:53:22.328Z,98021.16
2023-11-21T05:55:48.605Z,98025.63
2023-11-21T05:58:14.992Z,98024.81
2023-11-21T06:00:41.206Z,98037.00
2023-11-21T06:03:08.723Z,98038.84
2023-11-21T06:05:34.963Z,98039.63
2023-11-21T06:08:02.974Z,98054.66
2023-11-21T06:10:29.634Z,98052.84
2023-11-21T06:12:59.739Z,98056.31
2023-11-21T06:15:27.588Z,98066.03
2023-11-21T06:17:57.988Z,98068.66
2023-11-21T06:20:24.643Z,98067.69
2023-11-21T06:22:50.879Z,98071.31
2023-11-21T06:25:17.032Z,98072.94
2023-11-21T06:27:43.311Z,98077.41
2023-11-21T06:30:09.522Z,98075.59
2023-11-21T06:32:39.879Z,98074.78
2023-11-21T06:35:06.115Z,98072.13
2023-11-21T06:37:34.339Z,98074.78
2023-11-21T06:40:00.526Z,98078.22
2023-11-21T06:42:26.784Z,98077.41
2023-11-21T06:44:55.380Z,98077.41
2023-11-21T06:47:26.440Z,98086.16
2023-11-21T06:49:53.997Z,98087.13
2023-11-21T06:52:21.575Z,98096.69
2023-11-21T06:54:50.498Z,98090.59
2023-11-21T06:57:17.055Z,98100.31
2023-11-21T06:59:43.323Z,98102.16
2023-11-21T07:02:10.220Z,98100.31
2023-11-21T07:04:36.858Z,98104.63
2023-11-21T07:07:03.170Z,98112.53
2023-11-21T07:09:29.325Z,98115.16
2023-11-21T07:11:55.474Z,98122.28
2023-11-21T07:14:21.597Z,98133.63
2023-11-21T07:16:47.786Z,98136.28
2023-11-21T07:19:19.343Z,98141.56
2023-11-21T07:21:51.474Z,98139.72
2023-11-21T07:24:19.413Z,98148.66
2023-11-21T07:26:45.586Z,98149.47
2023-11-21T07:29:11.730Z,98155.72
2023-11-21T07:31:38.073Z,98157.38
2023-11-21T07:34:04.259Z,98164.50
2023-11-21T07:36:30.390Z,98167.13
2023-11-21T07:38:56.573Z,98174.19
2023-11-21T07:41:28.473Z,98168.91
2023-11-21T07:43:57.696Z,98174.19
2023-11-21T07:46:24.006Z,98176.66
2023-11-21T07:48:50.193Z,98181.13
2023-11-21T07:51:16.363Z,98184.75
2023-11-21T07:53:42.493Z,98180.31
2023-11-21T07:56:08.639Z,98181.31
2023-11-21T07:58:34.901Z,98190.88
2023-11-21T08:01:01.084Z,98187.38
2023-11-21T08:03:27.357Z,98190.03
2023-11-21T08:05:53.656Z,98188.22
2023-11-21T08:08:19.860Z,98185.59
2023-11-21T08:10:46.031Z,98177.84
2023-11-21T08:13:12.203Z,98190.03
2023-11-21T08:15:38.371Z,98187.38
2023-11-21T08:18:04.559Z,98187.38
2023-11-21T08:20:30.861Z,98191.69
2023-11-21T08:22:57.042Z,98203.22
2023-11-21T08:25:23.295Z,98196.97
2023-11-21T08:27:49.649Z,98205.84
2023-11-21T08:30:15.807Z,98215.44
2023-11-21T08:32:41.993Z,98217.25
2023-11-21T08:35:08.353Z,98221.69
2023-11-21T08:37:34.609Z,98225.16
2023-11-21T08:40:00.768Z,98230.44
2023-11-21T08:42:26.931Z,98222.53
2023-11-21T08:44:53.069Z,98240.16
2023-11-21T08:47:19.204Z,98233.09
2023-11-21T08:49:45.396Z,98242.78
2023-11-21T08:52:11.545Z,98250.72
2023-11-21T08:54:37.671Z,98248.91
2023-11-21T08:57:03.823Z,98250.72
2023-11-21T08:59:29.970Z,98270.03
2023-11-21T09:01:56.189Z,98267.38
2023-11-21T09:04:22.378Z,98267.38
2023-11-21T09:06:48.514Z,98269.19
2023-11-21T09:09:14.664Z,98277.09
2023-11-21T09:11:41.214Z,98275.31
2023-11-21T09:14:07.425Z,98273.66
2023-11-21T09:16:33.679Z,98278.94
2023-11-21T09:19:00.242Z,98285.84
2023-11-21T09:21:27.782Z,98283.38
2023-11-21T09:23:53.943Z,98278.94
2023-11-21T09:26:20.091Z,98276.28
2023-11-21T09:28:46.242Z,98284.19
2023-11-21T09:31:12.399Z,98292.13
2023-11-21T09:33:38.567Z,98294.75
2023-11-21T09:36:04.713Z,98300.03
2023-11-21T09:38:30.866Z,98296.59
2023-11-21T09:40:57.067Z,98300.84
2023-11-21T09:43:23.259Z,98302.66
2023-11-21T09:45:49.518Z,98299.22
2023-11-21T09:48:15.726Z,98310.59
2023-11-21T09:50:41.878Z,98316.69
2023-11-21T09:53:08.101Z,98315.88
2023-11-21T09:55:34.292Z,98315.88
2023-11-21T09:58:00.428Z,98323.78
2023-11-21T10:00:26.593Z,98327.22
2023-11-21T10:02:52.896Z,98326.41
2023-11-21T10:05:19.091Z,98323.78
2023-11-21T10:07:45.289Z,98321.13
2023-11-21T10:10:11.482Z,98326.41
2023-11-21T10:12:37.626Z,98321.94
2023-11-21T10:15:03.769Z,98318.50
2023-11-21T10:17:29.999Z,98321.13
2023-11-21T10:19:56.174Z,98319.50
2023-11-21T10:24:53.880Z,98320.31
2023-11-21T10:27:20.562Z,98325.59
2023-11-21T10:29:46.717Z,98329.88
2023-11-21T10:32:12.904Z,98323.78
2023-11-21T10:34:39.122Z,98323.78
2023-11-21T10:37:05.297Z,98329.06
2023-11-21T10:39:31.450Z,98333.53
2023-11-21T10:41:57.646Z,98330.88
2023-11-21T10:44:23.902Z,98331.69
2023-11-21T10:46:50.205Z,98336.16
2023-11-21T10:49:16.367Z,98330.88
2023-11-21T10:51:42.539Z,98334.34
2023-11-21T10:54:08.708Z,98337.78
2023-11-21T10:56:34.851Z,98329.06
2023-11-21T10:59:01.730Z,98336.16
2023-11-21T11:01:28.147Z,98338.81
2023-11-21T11:03:54.454Z,98341.44
2023-11-21T11:06:20.629Z,98344.88
2023-11-21T11:08:46.823Z,98346.72
2023-11-21T11:11:13.028Z,98344.06
2023-11-21T11:13:39.233Z,98353.63
2023-11-21T11:16:05.963Z,98360.72
2023-11-21T11:18:32.239Z,98358.06
2023-11-21T11:20:58.422Z,98363.34
2023-11-21T11:23:24.576Z,98365.19
2023-11-21T11:25:50.781Z,98362.53
2023-11-21T11:28:16.942Z,98357.28
2023-11-21T11:30:43.115Z,98361.53
2023-11-21T11:33:09.285Z,98355.44
2023-11-21T11:35:35.473Z,98361.53
2023-11-21T11:38:01.719Z,98356.44
2023-11-21T11:40:27.902Z,98353.63
2023-11-21T11:42:54.037Z,98355.44
2023-11-21T11:45:20.244Z,98357.28
2023-11-21T11:47:46.463Z,98363.34
2023-11-21T11:50:12.726Z,98366.81
2023-11-21T11:52:38.913Z,98367.81
2023-11-21T11:55:05.092Z,98362.53
2023-11-21T11:57:31.254Z,98360.88
2023-11-21T11:59:57.844Z,98368.63
2023-11-21T12:02:24.171Z,98365.19
2023-11-21T12:04:50.455Z,98367.81
2023-11-21T12:07:16.685Z,98372.94
2023-11-21T12:09:42.836Z,98378.38
2023-11-21T12:12:08.989Z,98380.38
2023-11-21T12:14:35.148Z,98384.00
2023-11-21T12:17:01.311Z,98384.81
2023-11-21T12:19:27.487Z,98390.94
2023-11-21T12:21:54.125Z,98388.28
2023-11-21T12:24:20.262Z,98392.53
2023-11-21T12:26:46.398Z,98391.72
2023-11-21T12:29:12.578Z,98397.81
2023-11-21T12:31:38.802Z,98402.28
2023-11-21T12:34:05.007Z,98402.28
2023-11-21T12:36:31.200Z,98404.75
2023-11-21T12:38:57.343Z,98405.75
2023-11-21T12:41:23.497Z,98410.84
2023-11-21T12:43:49.680Z,98418.94
2023-11-21T12:46:16.187Z,98406.75
2023-11-21T12:48:42.353Z,98408.38
2023-11-21T12:51:08.541Z,98418.94
2023-11-21T12:53:34.745Z,98418.94
2023-11-21T12:56:01.093Z,98424.22
2023-11-21T12:58:27.304Z,98411.00
2023-11-21T13:00:53.427Z,98422.59
2023-11-21T13:03:20.055Z,98422.59
2023-11-21T13:05:48.606Z,98425.22
2023-11-21T13:08:15.526Z,98420.94
2023-11-21T13:10:41.670Z,98416.47
2023-11-21T13:13:07.851Z,98422.59
2023-11-21T13:15:34.112Z,98422.59
2023-11-21T13:18:00.343Z,98433.13
2023-11-21T13:20:26.642Z,98432.50
2023-11-21T13:22:52.922Z,98449.31
2023-11-21T13:25:19.106Z,98447.66
2023-11-21T13:27:45.292Z,98455.56
2023-11-21T13:30:11.511Z,98460.19
2023-11-21T13:32:37.655Z,98455.75
2023-11-21T13:35:03.820Z,98467.13
2023-11-21T13:37:29.999Z,98465.31
2023-11-21T13:39:56.154Z,98471.38
2023-11-21T13:42:22.383Z,98475.03
2023-11-21T13:44:48.519Z,98467.94
2023-11-21T13:47:14.688Z,98478.31
2023-11-21T13:49:40.908Z,98488.06
2023-11-21T13:52:07.071Z,98478.50
2023-11-21T13:54:33.314Z,98493.19
2023-11-21T13:56:59.669Z,98489.53
2023-11-21T13:59:25.832Z,98503.72
2023-11-21T14:01:52.376Z,98507.34
2023-11-21T14:04:18.620Z,98497.59
2023-11-21T14:06:44.833Z,98495.13
2023-11-21T14:09:10.976Z,98498.78
2023-11-21T14:11:43.278Z,98505.03
2023-11-21T14:14:12.656Z,98519.88
2023-11-21T14:16:38.908Z,98517.25
2023-11-21T14:19:05.103Z,98507.69
2023-11-21T14:21:31.272Z,98513.59
2023-11-21T14:23:57.508Z,98509.16
2023-11-21T14:26:23.646Z,98517.91
2023-11-21T14:28:49.796Z,98520.53
2023-11-21T14:31:16.328Z,98521.34
2023-11-21T14:33:42.508Z,98517.91
2023-11-21T14:36:08.660Z,98514.63
2023-11-21T14:38:34.815Z,98526.78
2023-11-21T14:41:01.061Z,98518.22
2023-11-21T14:43:27.220Z,98524.34
2023-11-21T14:45:53.405Z,98522.38
2023-11-21T14:48:19.578Z,98527.63
2023-11-21T14:50:45.748Z,98524.84
2023-11-21T14:53:12.015Z,98531.91
2023-11-21T14:55:38.228Z,98543.31
2023-11-21T14:58:04.381Z,98543.31
2023-11-21T15:00:30.581Z,98550.38
2023-11-21T15:02:56.837Z,98551.22
2023-11-21T15:05:23.024Z,98553.00
2023-11-21T15:07:49.274Z,98572.31
2023-11-21T15:10:15.439Z,98567.88
2023-11-21T15:12:41.566Z,98574.97
2023-11-21T15:15:07.728Z,98581.06
2023-11-21T15:17:34.088Z,98586.34
2023-11-21T15:20:00.400Z,98588.97
2023-11-21T15:22:26.617Z,98589.13
2023-11-21T15:24:52.775Z,98591.63
2023-11-21T15:27:18.923Z,98598.72
2023-11-21T15:29:45.177Z,98601.34
2023-11-21T15:32:11.453Z,98602.31
2023-11-21T15:34:37.676Z,98608.59
2023-11-21T15:37:03.877Z,98606.94
2023-11-21T15:39:30.041Z,98611.41
2023-11-21T15:41:56.181Z,98609.75
2023-11-21T15:44:22.330Z,98617.66
2023-11-21T15:46:48.576Z,98618.47
2023-11-21T15:49:14.806Z,98628.22
2023-11-21T15:51:40.979Z,98635.16
2023-11-21T15:54:07.117Z,98637.97
2023-11-21T15:56:33.240Z,98645.88
2023-11-21T15:58:59.424Z,98647.66
2023-11-21T16:01:25.609Z,98653.78
2023-11-21T16:03:51.829Z,98656.44
2023-11-21T16:06:18.115Z,98664.34
2023-11-21T16:08:44.247Z,98665.97
2023-11-21T16:11:10.506Z,98671.25
2023-11-21T16:13:36.777Z,98677.38
2023-11-21T16:16:02.948Z,98680.00
2023-11-21T16:18:29.092Z,98685.28
2023-11-21T16:20:55.244Z,98692.34
2023-11-21T16:23:21.411Z,98692.53
2023-11-21T16:25:47.653Z,98695.16
2023-11-21T16:28:13.830Z,98696.00
2023-11-21T16:30:40.011Z,98701.28
2023-11-21T16:33:06.228Z,98705.56
2023-11-21T16:35:32.887Z,98711.84
2023-11-21T16:37:59.037Z,98717.94
2023-11-21T16:40:25.176Z,98718.75
2023-11-21T16:42:51.333Z,98720.41
2023-11-21T16:45:17.529Z,98730.16
2023-11-21T16:47:43.841Z,98745.13
2023-11-21T16:50:10.107Z,98750.41
2023-11-21T16:52:36.298Z,98758.31
2023-11-21T16:55:02.454Z,98756.53
2023-11-21T16:57:28.636Z,98757.50
2023-11-21T16:59:54.821Z,98767.25
2023-11-21T17:02:21.052Z,98771.50
2023-11-21T17:04:47.301Z,98777.78
2023-11-21T17:07:13.467Z,98785.72
2023-11-21T17:09:39.605Z,98791.81
2023-11-21T17:12:05.772Z,98785.72
2023-11-21T17:14:31.921Z,98791.00
2023-11-21T17:16:58.129Z,98793.63
2023-11-21T17:19:24.356Z,98794.44
2023-11-21T17:21:50.502Z,98797.91
2023-11-21T17:24:16.655Z,98809.31
2023-11-21T17:26:42.814Z,98807.63
2023-11-21T17:29:09.053Z,98807.78
2023-11-21T17:31:35.221Z,98815.72
2023-11-21T17:34:01.424Z,98820.66
2023-11-21T17:36:27.560Z,98822.31
2023-11-21T17:38:53.745Z,98827.41
2023-11-21T17:41:20.118Z,98837.81
2023-11-21T17:43:46.284Z,98843.91
2023-11-21T17:46:12.494Z,98851.00
2023-11-21T17:48:38.730Z,98859.75
2023-11-21T17:51:04.898Z,98863.38
2023-11-21T17:53:31.055Z,98858.94
2023-11-21T17:55:57.288Z,98872.94
2023-11-21T17:58:23.474Z,98879.22
2023-11-21T18:00:49.707Z,98887.13
2023-11-21T18:03:15.924Z,98886.31
2023-11-21T18:05:42.135Z,98888.13
2023-11-21T18:08:09.536Z,98888.97
2023-11-21T18:10:35.826Z,98889.78
2023-11-21T18:13:01.980Z,98904.78
2023-11-21T18:15:28.127Z,98902.16
2023-11-21T18:17:54.289Z,98905.75
2023-11-21T18:20:20.467Z,98909.38
2023-11-21T18:22:46.661Z,98909.38
2023-11-21T18:25:12.823Z,98912.00
2023-11-21T18:27:38.964Z,98920.94
2023-11-21T18:30:05.133Z,98917.47
2023-11-21T18:32:31.377Z,98922.75
2023-11-21T18:34:57.659Z,98928.03
2023-11-21T18:37:23.830Z,98933.31
2023-11-21T18:39:49.977Z,98936.75
2023-11-21T18:42:16.115Z,98938.59
2023-11-21T18:44:51.654Z,98940.38
2023-11-21T18:47:23.550Z,98941.22
2023-11-21T18:49:49.752Z,98948.28
2023-11-21T18:52:15.909Z,98945.66
2023-11-21T18:54:42.055Z,98949.13
2023-11-21T18:57:08.248Z,98953.56
2023-11-21T18:59:34.403Z,98956.22
2023-11-21T19:02:00.639Z,98965.94
2023-11-21T19:04:26.839Z,98962.50
2023-11-21T19:06:52.981Z,98974.81
2023-11-21T19:09:19.165Z,98975.69
2023-11-21T19:11:45.388Z,98997.59
2023-11-21T19:14:11.623Z,98992.31
2023-11-21T19:16:37.810Z,98992.47
2023-11-21T19:19:04.019Z,98994.97
2023-11-21T19:21:30.204Z,99001.22
2023-11-21T19:23:56.355Z,99001.22
2023-11-21T19:26:22.604Z,99008.16
2023-11-21T19:28:48.784Z,99010.94
2023-11-21T19:31:14.952Z,99010.94
2023-11-21T19:33:41.280Z,99005.66
2023-11-21T19:36:07.467Z,99006.50
2023-11-21T19:38:33.621Z,99010.94
2023-11-21T19:40:59.884Z,99010.94
2023-11-21T19:43:26.034Z,99011.94
2023-11-21T19:45:52.254Z,99010.13
2023-11-21T19:48:18.431Z,99020.69
2023-11-21T19:50:44.588Z,99020.69
2023-11-21T19:53:10.804Z,99021.50
2023-11-21T19:55:37.015Z,99021.50
2023-11-21T19:58:03.175Z,99026.78
2023-11-21T20:00:29.378Z,99027.78
2023-11-21T20:02:55.617Z,99036.50
2023-11-21T20:05:21.827Z,99033.88
2023-11-21T20:07:48.040Z,99036.50
2023-11-21T20:10:14.183Z,99035.69
2023-11-21T20:12:40.321Z,99047.06
2023-11-21T20:15:06.472Z,99040.78
2023-11-21T20:17:32.664Z,99038.16
2023-11-21T20:19:58.892Z,99041.50
2023-11-21T20:22:25.072Z,99045.91
2023-11-21T20:24:51.200Z,99050.22
2023-11-21T20:27:17.377Z,99052.88
2023-11-21T20:29:43.540Z,99049.22
2023-11-21T20:32:09.817Z,99042.16
2023-11-21T20:34:35.998Z,99049.22
2023-11-21T20:37:02.135Z,99061.44
2023-11-21T20:39:28.283Z,99058.00
2023-11-21T20:41:54.424Z,99068.53
2023-11-21T20:44:20.684Z,99066.72
2023-11-21T20:46:46.959Z,99070.34
2023-11-21T20:49:13.250Z,99072.97
2023-11-21T20:51:39.484Z,99073.81
2023-11-21T20:54:05.644Z,99075.63
2023-11-21T20:56:31.775Z,99086.16
2023-11-21T20:58:57.986Z,99092.44
2023-11-21T21:01:24.184Z,99089.81
2023-11-21T21:03:50.395Z,99088.13
2023-11-21T21:06:17.722Z,99097.72
2023-11-21T21:08:44.433Z,99103.97
2023-11-21T21:11:10.649Z,99104.81
2023-11-21T21:13:36.849Z,99106.59
2023-11-21T21:16:03.003Z,99105.78
2023-11-21T21:18:29.133Z,99107.59
2023-11-21T21:20:55.304Z,99107.59
2023-11-21T21:23:21.508Z,99109.41
2023-11-21T21:25:47.712Z,99101.47
2023-11-21T21:28:13.888Z,99106.75
2023-11-21T21:30:40.019Z,99111.22
2023-11-21T21:33:06.199Z,99121.78
2023-11-21T21:35:32.530Z,99117.31
2023-11-21T21:37:58.807Z,99126.22
2023-11-21T21:40:24.986Z,99126.22
2023-11-21T21:42:51.168Z,99128.19
2023-11-21T21:45:17.311Z,99129.00
2023-11-21T21:47:43.531Z,99128.03
2023-11-21T21:50:10.087Z,99128.19
2023-11-21T21:52:36.270Z,99129.84
2023-11-21T21:55:02.425Z,99134.28
2023-11-21T21:57:28.581Z,99137.75
2023-11-21T21:59:54.718Z,99134.28
2023-11-21T22:02:21.015Z,99140.38
2023-11-21T22:04:47.211Z,99149.31
2023-11-21T22:07:13.336Z,99146.66
2023-11-21T22:09:39.498Z,99158.03
2023-11-21T22:12:05.647Z,99165.94
2023-11-21T22:14:31.837Z,99161.50
2023-11-21T22:16:58.076Z,99181.50
2023-11-21T22:19:24.235Z,99182.97
2023-11-21T22:21:50.408Z,99180.19
2023-11-21T22:24:16.546Z,99183.66
2023-11-21T22:26:42.719Z,99186.97
2023-11-21T22:29:08.956Z,99196.69
2023-11-21T22:31:35.243Z,99194.88
2023-11-21T22:34:01.428Z,99204.63
2023-11-21T22:36:27.574Z,99201.97
2023-11-21T22:38:53.721Z,99212.53
2023-11-21T22:41:19.895Z,99202.78
2023-11-21T22:43:46.059Z,99201.97
2023-11-21T22:46:12.262Z,99199.34
2023-11-21T22:48:38.519Z,99205.63
2023-11-21T22:51:04.726Z,99203.78
2023-11-21T22:53:30.967Z,99207.25
2023-11-21T22:55:57.395Z,99205.75
2023-11-21T22:58:23.547Z,99206.59
2023-11-21T23:00:49.669Z,99197.00
2023-11-21T23:03:16.078Z,99195.22
2023-11-21T23:05:42.381Z,99200.47
2023-11-21T23:08:08.574Z,99200.63
2023-11-21T23:10:34.776Z,99206.59
2023-11-21T23:13:00.922Z,99204.09
2023-11-21T23:15:27.057Z,99205.91
2023-11-21T23:17:53.250Z,99207.72
2023-11-21T23:20:19.416Z,99207.56
2023-11-21T23:22:45.583Z,99198.97
2023-11-21T23:25:11.732Z,99202.44
2023-11-21T23:27:37.961Z,99200.78
2023-11-21T23:30:04.131Z,99198.13
2023-11-21T23:32:30.436Z,99204.25
2023-11-21T23:34:56.723Z,99208.69
2023-11-21T23:37:22.863Z,99212.31
2023-11-21T23:39:49.014Z,99217.56
2023-11-21T23:42:15.160Z,99223.72
2023-11-21T23:44:41.306Z,99222.03
2023-11-21T23:47:07.497Z,99235.09
2023-11-21T23:49:33.652Z,99238.69
2023-11-21T23:51:59.793Z,99241.50
2023-11-21T23:54:25.962Z,99248.41
2023-11-21T23:56:52.174Z,99251.06
2023-11-21T23:59:18.465Z,99252.06
